sensor_id;sensor_type;location;lat;lon;timestamp;P1;durP1;ratioP1;P2;durP2;ratioP2
83562;SDS011;73535;52.500;13.482;2024-02-14T00:01:49;15.18;;;8.95;;
83562;SDS011;73535;52.500;13.482;2024-02-14T00:04:15;13.18;;;8.65;;
83562;SDS011;73535;52.500;13.482;2024-02-14T00:06:40;13.88;;;8.40;;
83562;SDS011;73535;52.500;13.482;2024-02-14T00:09:06;13.35;;;9.25;;
83562;SDS011;73535;52.500;13.482;2024-02-14T00:11:31;11.90;;;7.75;;
83562;SDS011;73535;52.500;13.482;2024-02-14T00:13:57;11.52;;;8.07;;
83562;SDS011;73535;52.500;13.482;2024-02-14T00:16:23;13.85;;;9.00;;
83562;SDS011;73535;52.500;13.482;2024-02-14T00:18:49;14.27;;;8.40;;
83562;SDS011;73535;52.500;13.482;2024-02-14T00:21:14;12.90;;;8.23;;
83562;SDS011;73535;52.500;13.482;2024-02-14T00:23:39;12.93;;;8.00;;
83562;SDS011;73535;52.500;13.482;2024-02-14T00:26:04;14.38;;;9.00;;
83562;SDS011;73535;52.500;13.482;2024-02-14T00:28:30;12.52;;;8.43;;
83562;SDS011;73535;52.500;13.482;2024-02-14T00:30:55;16.38;;;9.05;;
83562;SDS011;73535;52.500;13.482;2024-02-14T00:33:20;15.70;;;8.90;;
83562;SDS011;73535;52.500;13.482;2024-02-14T00:35:46;12.30;;;8.50;;
83562;SDS011;73535;52.500;13.482;2024-02-14T00:38:12;14.88;;;9.02;;
83562;SDS011;73535;52.500;13.482;2024-02-14T00:40:37;14.10;;;8.43;;
83562;SDS011;73535;52.500;13.482;2024-02-14T00:43:02;12.15;;;8.30;;
83562;SDS011;73535;52.500;13.482;2024-02-14T00:45:27;11.27;;;8.32;;
83562;SDS011;73535;52.500;13.482;2024-02-14T00:47:53;13.98;;;9.32;;
83562;SDS011;73535;52.500;13.482;2024-02-14T00:50:18;15.93;;;8.63;;
83562;SDS011;73535;52.500;13.482;2024-02-14T00:52:43;13.35;;;7.47;;
83562;SDS011;73535;52.500;13.482;2024-02-14T00:55:08;13.90;;;8.52;;
83562;SDS011;73535;52.500;13.482;2024-02-14T00:57:34;12.38;;;8.70;;
83562;SDS011;73535;52.500;13.482;2024-02-14T00:59:59;11.73;;;8.27;;
83562;SDS011;73535;52.500;13.482;2024-02-14T01:02:24;17.08;;;9.95;;
83562;SDS011;73535;52.500;13.482;2024-02-14T01:04:51;12.55;;;8.10;;
83562;SDS011;73535;52.500;13.482;2024-02-14T01:07:16;15.13;;;8.88;;
83562;SDS011;73535;52.500;13.482;2024-02-14T01:09:41;11.63;;;8.00;;
83562;SDS011;73535;52.500;13.482;2024-02-14T01:12:06;13.98;;;8.15;;
83562;SDS011;73535;52.500;13.482;2024-02-14T01:14:32;11.35;;;7.43;;
83562;SDS011;73535;52.500;13.482;2024-02-14T01:16:57;11.80;;;7.90;;
83562;SDS011;73535;52.500;13.482;2024-02-14T01:19:22;11.15;;;7.25;;
83562;SDS011;73535;52.500;13.482;2024-02-14T01:21:49;10.43;;;7.30;;
83562;SDS011;73535;52.500;13.482;2024-02-14T01:24:14;9.55;;;7.20;;
83562;SDS011;73535;52.500;13.482;2024-02-14T01:26:41;13.57;;;7.15;;
83562;SDS011;73535;52.500;13.482;2024-02-14T01:29:06;13.48;;;7.60;;
83562;SDS011;73535;52.500;13.482;2024-02-14T01:31:32;14.35;;;7.53;;
83562;SDS011;73535;52.500;13.482;2024-02-14T01:33:59;11.30;;;6.90;;
83562;SDS011;73535;52.500;13.482;2024-02-14T01:36:26;10.23;;;7.40;;
83562;SDS011;73535;52.500;13.482;2024-02-14T01:38:51;10.25;;;6.88;;
83562;SDS011;73535;52.500;13.482;2024-02-14T01:41:17;12.00;;;7.60;;
83562;SDS011;73535;52.500;13.482;2024-02-14T01:43:42;12.25;;;7.75;;
83562;SDS011;73535;52.500;13.482;2024-02-14T01:46:09;10.00;;;7.43;;
83562;SDS011;73535;52.500;13.482;2024-02-14T01:48:35;11.80;;;6.95;;
83562;SDS011;73535;52.500;13.482;2024-02-14T01:51:01;9.65;;;6.55;;
83562;SDS011;73535;52.500;13.482;2024-02-14T01:53:28;9.65;;;6.32;;
83562;SDS011;73535;52.500;13.482;2024-02-14T01:55:56;11.18;;;6.78;;
83562;SDS011;73535;52.500;13.482;2024-02-14T01:58:22;10.48;;;6.05;;
83562;SDS011;73535;52.500;13.482;2024-02-14T02:00:47;11.23;;;6.18;;
83562;SDS011;73535;52.500;13.482;2024-02-14T02:03:13;11.77;;;6.63;;
83562;SDS011;73535;52.500;13.482;2024-02-14T02:05:39;12.73;;;6.68;;
83562;SDS011;73535;52.500;13.482;2024-02-14T02:08:06;9.13;;;6.13;;
83562;SDS011;73535;52.500;13.482;2024-02-14T02:10:33;10.13;;;6.43;;
83562;SDS011;73535;52.500;13.482;2024-02-14T02:12:58;9.00;;;6.32;;
83562;SDS011;73535;52.500;13.482;2024-02-14T02:15:27;9.50;;;5.85;;
83562;SDS011;73535;52.500;13.482;2024-02-14T02:17:53;10.80;;;6.18;;
83562;SDS011;73535;52.500;13.482;2024-02-14T02:20:19;10.55;;;6.35;;
83562;SDS011;73535;52.500;13.482;2024-02-14T02:22:45;9.55;;;6.07;;
83562;SDS011;73535;52.500;13.482;2024-02-14T02:25:12;8.35;;;6.07;;
83562;SDS011;73535;52.500;13.482;2024-02-14T02:27:37;10.40;;;6.07;;
83562;SDS011;73535;52.500;13.482;2024-02-14T02:30:03;8.13;;;5.85;;
83562;SDS011;73535;52.500;13.482;2024-02-14T02:32:30;10.25;;;5.70;;
83562;SDS011;73535;52.500;13.482;2024-02-14T02:34:55;10.10;;;5.93;;
83562;SDS011;73535;52.500;13.482;2024-02-14T02:37:21;9.80;;;5.65;;
83562;SDS011;73535;52.500;13.482;2024-02-14T02:39:46;8.57;;;5.47;;
83562;SDS011;73535;52.500;13.482;2024-02-14T02:42:12;8.35;;;5.68;;
83562;SDS011;73535;52.500;13.482;2024-02-14T02:44:39;12.23;;;6.20;;
83562;SDS011;73535;52.500;13.482;2024-02-14T02:47:04;9.48;;;5.88;;
83562;SDS011;73535;52.500;13.482;2024-02-14T02:49:29;11.02;;;6.22;;
83562;SDS011;73535;52.500;13.482;2024-02-14T02:51:55;8.13;;;5.88;;
83562;SDS011;73535;52.500;13.482;2024-02-14T02:54:20;7.85;;;5.75;;
83562;SDS011;73535;52.500;13.482;2024-02-14T02:56:47;7.32;;;5.75;;
83562;SDS011;73535;52.500;13.482;2024-02-14T02:59:12;9.50;;;5.78;;
83562;SDS011;73535;52.500;13.482;2024-02-14T03:01:38;7.97;;;5.43;;
83562;SDS011;73535;52.500;13.482;2024-02-14T03:04:05;9.48;;;6.00;;
83562;SDS011;73535;52.500;13.482;2024-02-14T03:06:30;6.55;;;5.00;;
83562;SDS011;73535;52.500;13.482;2024-02-14T03:08:56;9.00;;;6.00;;
83562;SDS011;73535;52.500;13.482;2024-02-14T03:11:22;7.97;;;6.00;;
83562;SDS011;73535;52.500;13.482;2024-02-14T03:13:47;10.05;;;6.32;;
83562;SDS011;73535;52.500;13.482;2024-02-14T03:16:13;11.43;;;5.35;;
83562;SDS011;73535;52.500;13.482;2024-02-14T03:18:39;11.38;;;6.22;;
83562;SDS011;73535;52.500;13.482;2024-02-14T03:21:05;8.52;;;6.10;;
83562;SDS011;73535;52.500;13.482;2024-02-14T03:23:31;8.38;;;5.88;;
83562;SDS011;73535;52.500;13.482;2024-02-14T03:25:56;10.32;;;5.90;;
83562;SDS011;73535;52.500;13.482;2024-02-14T03:28:22;9.32;;;6.13;;
83562;SDS011;73535;52.500;13.482;2024-02-14T03:30:47;9.80;;;6.25;;
83562;SDS011;73535;52.500;13.482;2024-02-14T03:33:12;7.97;;;5.78;;
83562;SDS011;73535;52.500;13.482;2024-02-14T03:35:38;9.88;;;6.25;;
83562;SDS011;73535;52.500;13.482;2024-02-14T03:38:03;9.95;;;6.20;;
83562;SDS011;73535;52.500;13.482;2024-02-14T03:40:29;9.43;;;6.78;;
83562;SDS011;73535;52.500;13.482;2024-02-14T03:42:55;9.73;;;5.97;;
83562;SDS011;73535;52.500;13.482;2024-02-14T03:45:21;9.30;;;6.05;;
83562;SDS011;73535;52.500;13.482;2024-02-14T03:47:46;10.70;;;6.63;;
83562;SDS011;73535;52.500;13.482;2024-02-14T03:50:11;9.18;;;6.78;;
83562;SDS011;73535;52.500;13.482;2024-02-14T03:52:36;10.80;;;6.43;;
83562;SDS011;73535;52.500;13.482;2024-02-14T03:55:02;11.93;;;6.68;;
83562;SDS011;73535;52.500;13.482;2024-02-14T03:57:28;9.85;;;6.70;;
83562;SDS011;73535;52.500;13.482;2024-02-14T03:59:57;10.60;;;6.82;;
83562;SDS011;73535;52.500;13.482;2024-02-14T04:02:26;14.13;;;7.15;;
83562;SDS011;73535;52.500;13.482;2024-02-14T04:04:53;8.68;;;6.32;;
83562;SDS011;73535;52.500;13.482;2024-02-14T04:07:18;10.32;;;7.10;;
83562;SDS011;73535;52.500;13.482;2024-02-14T04:09:43;10.50;;;6.45;;
83562;SDS011;73535;52.500;13.482;2024-02-14T04:12:08;11.07;;;7.20;;
83562;SDS011;73535;52.500;13.482;2024-02-14T04:14:35;10.32;;;7.07;;
83562;SDS011;73535;52.500;13.482;2024-02-14T04:17:00;12.93;;;7.80;;
83562;SDS011;73535;52.500;13.482;2024-02-14T04:19:26;10.05;;;7.07;;
83562;SDS011;73535;52.500;13.482;2024-02-14T04:21:51;12.85;;;8.05;;
83562;SDS011;73535;52.500;13.482;2024-02-14T04:24:16;10.57;;;7.13;;
83562;SDS011;73535;52.500;13.482;2024-02-14T04:26:42;13.75;;;7.75;;
83562;SDS011;73535;52.500;13.482;2024-02-14T04:29:10;12.45;;;7.80;;
83562;SDS011;73535;52.500;13.482;2024-02-14T04:31:35;11.30;;;7.20;;
83562;SDS011;73535;52.500;13.482;2024-02-14T04:34:01;11.95;;;7.75;;
83562;SDS011;73535;52.500;13.482;2024-02-14T04:36:26;12.48;;;7.68;;
83562;SDS011;73535;52.500;13.482;2024-02-14T04:38:52;10.85;;;7.47;;
83562;SDS011;73535;52.500;13.482;2024-02-14T04:41:18;14.52;;;8.05;;
83562;SDS011;73535;52.500;13.482;2024-02-14T04:43:43;11.30;;;7.28;;
83562;SDS011;73535;52.500;13.482;2024-02-14T04:46:08;12.70;;;7.32;;
83562;SDS011;73535;52.500;13.482;2024-02-14T04:48:37;13.93;;;7.70;;
83562;SDS011;73535;52.500;13.482;2024-02-14T04:51:02;14.15;;;7.82;;
83562;SDS011;73535;52.500;13.482;2024-02-14T04:53:29;11.00;;;6.63;;
83562;SDS011;73535;52.500;13.482;2024-02-14T04:55:55;11.48;;;7.63;;
83562;SDS011;73535;52.500;13.482;2024-02-14T04:58:20;11.85;;;7.28;;
83562;SDS011;73535;52.500;13.482;2024-02-14T05:00:45;10.90;;;6.97;;
83562;SDS011;73535;52.500;13.482;2024-02-14T05:03:11;9.77;;;7.63;;
83562;SDS011;73535;52.500;13.482;2024-02-14T05:05:36;12.27;;;7.65;;
83562;SDS011;73535;52.500;13.482;2024-02-14T05:08:02;11.30;;;7.55;;
83562;SDS011;73535;52.500;13.482;2024-02-14T05:10:28;12.38;;;7.55;;
83562;SDS011;73535;52.500;13.482;2024-02-14T05:12:54;12.50;;;6.75;;
83562;SDS011;73535;52.500;13.482;2024-02-14T05:15:19;11.38;;;8.10;;
83562;SDS011;73535;52.500;13.482;2024-02-14T05:17:45;11.80;;;8.80;;
83562;SDS011;73535;52.500;13.482;2024-02-14T05:20:10;12.30;;;7.35;;
83562;SDS011;73535;52.500;13.482;2024-02-14T05:22:36;10.95;;;7.95;;
83562;SDS011;73535;52.500;13.482;2024-02-14T05:25:04;13.57;;;7.60;;
83562;SDS011;73535;52.500;13.482;2024-02-14T05:27:32;13.85;;;8.13;;
83562;SDS011;73535;52.500;13.482;2024-02-14T05:29:58;11.10;;;7.68;;
83562;SDS011;73535;52.500;13.482;2024-02-14T05:32:23;12.73;;;7.60;;
83562;SDS011;73535;52.500;13.482;2024-02-14T05:34:49;11.82;;;7.32;;
83562;SDS011;73535;52.500;13.482;2024-02-14T05:37:15;10.38;;;7.35;;
83562;SDS011;73535;52.500;13.482;2024-02-14T05:39:40;14.65;;;7.25;;
83562;SDS011;73535;52.500;13.482;2024-02-14T05:42:06;10.85;;;6.65;;
83562;SDS011;73535;52.500;13.482;2024-02-14T05:44:31;11.20;;;6.60;;
83562;SDS011;73535;52.500;13.482;2024-02-14T05:46:56;10.25;;;7.00;;
83562;SDS011;73535;52.500;13.482;2024-02-14T05:49:22;14.43;;;6.88;;
83562;SDS011;73535;52.500;13.482;2024-02-14T05:51:47;10.57;;;6.65;;
83562;SDS011;73535;52.500;13.482;2024-02-14T05:54:12;11.93;;;6.47;;
83562;SDS011;73535;52.500;13.482;2024-02-14T05:56:38;10.52;;;6.50;;
83562;SDS011;73535;52.500;13.482;2024-02-14T05:59:03;16.38;;;7.60;;
83562;SDS011;73535;52.500;13.482;2024-02-14T06:01:28;11.88;;;6.95;;
83562;SDS011;73535;52.500;13.482;2024-02-14T06:03:53;12.38;;;7.13;;
83562;SDS011;73535;52.500;13.482;2024-02-14T06:06:19;12.38;;;6.13;;
83562;SDS011;73535;52.500;13.482;2024-02-14T06:08:44;15.05;;;6.72;;
83562;SDS011;73535;52.500;13.482;2024-02-14T06:11:09;11.40;;;6.85;;
83562;SDS011;73535;52.500;13.482;2024-02-14T06:13:35;11.05;;;6.10;;
83562;SDS011;73535;52.500;13.482;2024-02-14T06:16:03;11.65;;;6.30;;
83562;SDS011;73535;52.500;13.482;2024-02-14T06:18:28;8.80;;;5.93;;
83562;SDS011;73535;52.500;13.482;2024-02-14T06:20:54;11.82;;;5.95;;
83562;SDS011;73535;52.500;13.482;2024-02-14T06:23:19;12.02;;;6.90;;
83562;SDS011;73535;52.500;13.482;2024-02-14T06:25:44;8.50;;;6.15;;
83562;SDS011;73535;52.500;13.482;2024-02-14T06:28:09;8.30;;;5.72;;
83562;SDS011;73535;52.500;13.482;2024-02-14T06:30:35;13.57;;;6.20;;
83562;SDS011;73535;52.500;13.482;2024-02-14T06:33:00;9.88;;;5.90;;
83562;SDS011;73535;52.500;13.482;2024-02-14T06:35:27;11.45;;;6.15;;
83562;SDS011;73535;52.500;13.482;2024-02-14T06:37:52;10.43;;;6.13;;
83562;SDS011;73535;52.500;13.482;2024-02-14T06:40:17;8.13;;;5.78;;
83562;SDS011;73535;52.500;13.482;2024-02-14T06:42:43;11.98;;;6.32;;
83562;SDS011;73535;52.500;13.482;2024-02-14T06:45:08;9.20;;;6.28;;
83562;SDS011;73535;52.500;13.482;2024-02-14T06:47:33;8.93;;;5.60;;
83562;SDS011;73535;52.500;13.482;2024-02-14T06:49:58;10.40;;;6.07;;
83562;SDS011;73535;52.500;13.482;2024-02-14T06:52:24;12.45;;;6.25;;
83562;SDS011;73535;52.500;13.482;2024-02-14T06:54:49;13.68;;;5.72;;
83562;SDS011;73535;52.500;13.482;2024-02-14T06:57:14;12.50;;;6.00;;
83562;SDS011;73535;52.500;13.482;2024-02-14T06:59:39;14.38;;;6.40;;
83562;SDS011;73535;52.500;13.482;2024-02-14T07:02:05;13.20;;;6.40;;
83562;SDS011;73535;52.500;13.482;2024-02-14T07:04:31;13.27;;;6.18;;
83562;SDS011;73535;52.500;13.482;2024-02-14T07:06:56;8.93;;;6.35;;
83562;SDS011;73535;52.500;13.482;2024-02-14T07:09:22;11.98;;;6.22;;
83562;SDS011;73535;52.500;13.482;2024-02-14T07:11:47;11.00;;;6.47;;
83562;SDS011;73535;52.500;13.482;2024-02-14T07:14:12;13.68;;;5.50;;
83562;SDS011;73535;52.500;13.482;2024-02-14T07:16:38;14.40;;;6.63;;
83562;SDS011;73535;52.500;13.482;2024-02-14T07:19:03;8.80;;;6.00;;
83562;SDS011;73535;52.500;13.482;2024-02-14T07:21:28;10.98;;;6.35;;
83562;SDS011;73535;52.500;13.482;2024-02-14T07:23:53;12.38;;;6.38;;
83562;SDS011;73535;52.500;13.482;2024-02-14T07:26:19;12.55;;;5.90;;
83562;SDS011;73535;52.500;13.482;2024-02-14T07:28:44;14.90;;;6.15;;
83562;SDS011;73535;52.500;13.482;2024-02-14T07:31:10;24.08;;;8.02;;
83562;SDS011;73535;52.500;13.482;2024-02-14T07:33:35;11.57;;;6.35;;
83562;SDS011;73535;52.500;13.482;2024-02-14T07:36:00;15.27;;;6.63;;
83562;SDS011;73535;52.500;13.482;2024-02-14T07:38:25;10.55;;;6.13;;
83562;SDS011;73535;52.500;13.482;2024-02-14T07:40:51;11.98;;;5.47;;
83562;SDS011;73535;52.500;13.482;2024-02-14T07:43:17;9.00;;;5.45;;
83562;SDS011;73535;52.500;13.482;2024-02-14T07:45:42;6.93;;;4.70;;
83562;SDS011;73535;52.500;13.482;2024-02-14T07:48:07;6.43;;;4.28;;
83562;SDS011;73535;52.500;13.482;2024-02-14T07:50:33;6.00;;;4.28;;
83562;SDS011;73535;52.500;13.482;2024-02-14T07:52:58;7.65;;;4.60;;
83562;SDS011;73535;52.500;13.482;2024-02-14T07:55:23;7.93;;;5.10;;
83562;SDS011;73535;52.500;13.482;2024-02-14T07:57:49;8.32;;;4.15;;
83562;SDS011;73535;52.500;13.482;2024-02-14T08:00:14;5.80;;;4.07;;
83562;SDS011;73535;52.500;13.482;2024-02-14T08:02:47;8.40;;;4.18;;
83562;SDS011;73535;52.500;13.482;2024-02-14T08:05:13;4.50;;;3.53;;
83562;SDS011;73535;52.500;13.482;2024-02-14T08:07:39;4.68;;;3.83;;
83562;SDS011;73535;52.500;13.482;2024-02-14T08:10:04;7.43;;;3.78;;
83562;SDS011;73535;52.500;13.482;2024-02-14T08:12:29;10.02;;;4.45;;
83562;SDS011;73535;52.500;13.482;2024-02-14T08:14:55;6.95;;;4.78;;
83562;SDS011;73535;52.500;13.482;2024-02-14T08:17:20;6.18;;;4.40;;
83562;SDS011;73535;52.500;13.482;2024-02-14T08:19:46;8.68;;;4.28;;
83562;SDS011;73535;52.500;13.482;2024-02-14T08:22:11;6.95;;;4.40;;
83562;SDS011;73535;52.500;13.482;2024-02-14T08:24:37;6.18;;;4.13;;
83562;SDS011;73535;52.500;13.482;2024-02-14T08:27:02;7.50;;;4.07;;
83562;SDS011;73535;52.500;13.482;2024-02-14T08:29:31;5.45;;;4.43;;
83562;SDS011;73535;52.500;13.482;2024-02-14T08:31:56;6.32;;;4.00;;
83562;SDS011;73535;52.500;13.482;2024-02-14T08:34:21;5.72;;;4.00;;
83562;SDS011;73535;52.500;13.482;2024-02-14T08:36:47;7.25;;;4.38;;
83562;SDS011;73535;52.500;13.482;2024-02-14T08:39:12;7.35;;;4.63;;
83562;SDS011;73535;52.500;13.482;2024-02-14T08:41:37;5.95;;;4.70;;
83562;SDS011;73535;52.500;13.482;2024-02-14T08:44:04;7.20;;;4.85;;
83562;SDS011;73535;52.500;13.482;2024-02-14T08:46:29;8.57;;;4.43;;
83562;SDS011;73535;52.500;13.482;2024-02-14T08:48:55;6.07;;;4.80;;
83562;SDS011;73535;52.500;13.482;2024-02-14T08:51:20;9.10;;;5.20;;
83562;SDS011;73535;52.500;13.482;2024-02-14T08:53:45;5.45;;;4.32;;
83562;SDS011;73535;52.500;13.482;2024-02-14T08:56:11;7.80;;;4.45;;
83562;SDS011;73535;52.500;13.482;2024-02-14T08:58:36;5.82;;;4.68;;
83562;SDS011;73535;52.500;13.482;2024-02-14T09:01:01;7.50;;;4.88;;
83562;SDS011;73535;52.500;13.482;2024-02-14T09:03:26;6.40;;;3.97;;
83562;SDS011;73535;52.500;13.482;2024-02-14T09:05:52;8.25;;;4.43;;
83562;SDS011;73535;52.500;13.482;2024-02-14T09:08:18;6.78;;;4.25;;
83562;SDS011;73535;52.500;13.482;2024-02-14T09:10:43;6.03;;;3.72;;
83562;SDS011;73535;52.500;13.482;2024-02-14T09:13:10;5.78;;;4.35;;
83562;SDS011;73535;52.500;13.482;2024-02-14T09:15:36;8.25;;;4.75;;
83562;SDS011;73535;52.500;13.482;2024-02-14T09:18:01;7.63;;;4.53;;
83562;SDS011;73535;52.500;13.482;2024-02-14T09:20:28;6.43;;;4.53;;
83562;SDS011;73535;52.500;13.482;2024-02-14T09:22:53;7.50;;;3.95;;
83562;SDS011;73535;52.500;13.482;2024-02-14T09:25:19;6.28;;;4.70;;
83562;SDS011;73535;52.500;13.482;2024-02-14T09:27:44;5.82;;;4.35;;
83562;SDS011;73535;52.500;13.482;2024-02-14T09:30:12;7.75;;;4.72;;
83562;SDS011;73535;52.500;13.482;2024-02-14T09:32:37;7.60;;;4.55;;
83562;SDS011;73535;52.500;13.482;2024-02-14T09:35:03;6.13;;;4.30;;
83562;SDS011;73535;52.500;13.482;2024-02-14T09:37:31;6.32;;;4.47;;
83562;SDS011;73535;52.500;13.482;2024-02-14T09:39:56;6.90;;;3.88;;
83562;SDS011;73535;52.500;13.482;2024-02-14T09:42:24;11.45;;;4.72;;
83562;SDS011;73535;52.500;13.482;2024-02-14T09:44:58;6.47;;;4.47;;
83562;SDS011;73535;52.500;13.482;2024-02-14T09:47:24;7.45;;;4.30;;
83562;SDS011;73535;52.500;13.482;2024-02-14T09:49:49;4.93;;;3.50;;
83562;SDS011;73535;52.500;13.482;2024-02-14T09:52:17;6.97;;;4.13;;
83562;SDS011;73535;52.500;13.482;2024-02-14T09:54:42;9.73;;;4.10;;
83562;SDS011;73535;52.500;13.482;2024-02-14T09:57:08;6.88;;;3.72;;
83562;SDS011;73535;52.500;13.482;2024-02-14T09:59:34;6.38;;;3.50;;
83562;SDS011;73535;52.500;13.482;2024-02-14T10:02:00;5.15;;;3.55;;
83562;SDS011;73535;52.500;13.482;2024-02-14T10:04:25;7.00;;;3.25;;
83562;SDS011;73535;52.500;13.482;2024-02-14T10:06:51;5.85;;;2.55;;
83562;SDS011;73535;52.500;13.482;2024-02-14T10:09:20;5.15;;;2.60;;
83562;SDS011;73535;52.500;13.482;2024-02-14T10:11:46;4.72;;;3.05;;
83562;SDS011;73535;52.500;13.482;2024-02-14T10:14:11;4.05;;;2.63;;
83562;SDS011;73535;52.500;13.482;2024-02-14T10:16:37;4.88;;;2.60;;
83562;SDS011;73535;52.500;13.482;2024-02-14T10:19:03;4.85;;;2.90;;
83562;SDS011;73535;52.500;13.482;2024-02-14T10:21:29;6.22;;;3.13;;
83562;SDS011;73535;52.500;13.482;2024-02-14T10:23:54;6.43;;;3.30;;
83562;SDS011;73535;52.500;13.482;2024-02-14T10:26:22;7.78;;;3.10;;
83562;SDS011;73535;52.500;13.482;2024-02-14T10:28:48;4.97;;;2.85;;
83562;SDS011;73535;52.500;13.482;2024-02-14T10:31:15;6.10;;;3.25;;
83562;SDS011;73535;52.500;13.482;2024-02-14T10:33:41;6.13;;;3.17;;
83562;SDS011;73535;52.500;13.482;2024-02-14T10:36:09;5.20;;;3.33;;
83562;SDS011;73535;52.500;13.482;2024-02-14T10:38:37;5.88;;;2.83;;
83562;SDS011;73535;52.500;13.482;2024-02-14T10:41:04;6.57;;;2.95;;
83562;SDS011;73535;52.500;13.482;2024-02-14T10:43:29;4.88;;;2.80;;
83562;SDS011;73535;52.500;13.482;2024-02-14T10:45:55;6.13;;;3.22;;
83562;SDS011;73535;52.500;13.482;2024-02-14T10:48:23;4.25;;;3.30;;
83562;SDS011;73535;52.500;13.482;2024-02-14T10:53:17;4.20;;;2.90;;
83562;SDS011;73535;52.500;13.482;2024-02-14T10:55:45;4.35;;;3.00;;
83562;SDS011;73535;52.500;13.482;2024-02-14T10:58:12;5.88;;;3.00;;
83562;SDS011;73535;52.500;13.482;2024-02-14T11:00:39;5.53;;;3.10;;
83562;SDS011;73535;52.500;13.482;2024-02-14T11:03:04;5.18;;;3.10;;
83562;SDS011;73535;52.500;13.482;2024-02-14T11:05:30;5.30;;;2.92;;
83562;SDS011;73535;52.500;13.482;2024-02-14T11:07:56;5.30;;;3.15;;
83562;SDS011;73535;52.500;13.482;2024-02-14T11:10:22;3.75;;;2.83;;
83562;SDS011;73535;52.500;13.482;2024-02-14T11:12:48;4.70;;;3.08;;
83562;SDS011;73535;52.500;13.482;2024-02-14T11:15:16;4.13;;;3.15;;
83562;SDS011;73535;52.500;13.482;2024-02-14T11:17:43;4.95;;;2.75;;
83562;SDS011;73535;52.500;13.482;2024-02-14T11:20:21;4.50;;;2.55;;
83562;SDS011;73535;52.500;13.482;2024-02-14T11:22:57;6.30;;;3.30;;
83562;SDS011;73535;52.500;13.482;2024-02-14T11:25:34;3.35;;;2.60;;
83562;SDS011;73535;52.500;13.482;2024-02-14T11:28:00;4.45;;;3.10;;
83562;SDS011;73535;52.500;13.482;2024-02-14T11:30:36;6.35;;;3.13;;
83562;SDS011;73535;52.500;13.482;2024-02-14T11:35:49;6.75;;;3.17;;
83562;SDS011;73535;52.500;13.482;2024-02-14T11:38:16;4.68;;;2.67;;
83562;SDS011;73535;52.500;13.482;2024-02-14T11:40:41;5.10;;;2.90;;
83562;SDS011;73535;52.500;13.482;2024-02-14T11:43:10;6.13;;;3.22;;
83562;SDS011;73535;52.500;13.482;2024-02-14T11:45:37;5.63;;;3.05;;
83562;SDS011;73535;52.500;13.482;2024-02-14T11:48:04;4.88;;;3.22;;
83562;SDS011;73535;52.500;13.482;2024-02-14T11:50:30;4.43;;;3.03;;
83562;SDS011;73535;52.500;13.482;2024-02-14T11:52:55;4.53;;;2.90;;
83562;SDS011;73535;52.500;13.482;2024-02-14T11:55:27;7.30;;;3.10;;
83562;SDS011;73535;52.500;13.482;2024-02-14T11:57:52;7.13;;;3.55;;
83562;SDS011;73535;52.500;13.482;2024-02-14T12:00:18;4.40;;;3.30;;
83562;SDS011;73535;52.500;13.482;2024-02-14T12:02:43;5.75;;;3.30;;
83562;SDS011;73535;52.500;13.482;2024-02-14T12:05:09;3.80;;;3.03;;
83562;SDS011;73535;52.500;13.482;2024-02-14T12:07:34;4.72;;;3.03;;
83562;SDS011;73535;52.500;13.482;2024-02-14T12:09:59;8.30;;;3.47;;
83562;SDS011;73535;52.500;13.482;2024-02-14T12:12:25;4.20;;;3.63;;
83562;SDS011;73535;52.500;13.482;2024-02-14T12:14:53;5.50;;;3.72;;
83562;SDS011;73535;52.500;13.482;2024-02-14T12:17:18;6.97;;;4.13;;
83562;SDS011;73535;52.500;13.482;2024-02-14T12:19:44;8.05;;;3.92;;
83562;SDS011;73535;52.500;13.482;2024-02-14T12:22:09;6.40;;;4.03;;
83562;SDS011;73535;52.500;13.482;2024-02-14T12:24:42;5.63;;;3.80;;
83562;SDS011;73535;52.500;13.482;2024-02-14T12:27:08;5.47;;;4.00;;
83562;SDS011;73535;52.500;13.482;2024-02-14T12:29:34;5.13;;;3.65;;
83562;SDS011;73535;52.500;13.482;2024-02-14T12:34:29;5.70;;;4.05;;
83562;SDS011;73535;52.500;13.482;2024-02-14T12:36:55;7.07;;;4.15;;
83562;SDS011;73535;52.500;13.482;2024-02-14T12:39:20;6.15;;;4.05;;
83562;SDS011;73535;52.500;13.482;2024-02-14T12:41:45;7.90;;;4.07;;
83562;SDS011;73535;52.500;13.482;2024-02-14T12:44:10;6.88;;;4.00;;
83562;SDS011;73535;52.500;13.482;2024-02-14T12:46:36;6.07;;;3.90;;
83562;SDS011;73535;52.500;13.482;2024-02-14T12:49:03;6.68;;;4.35;;
83562;SDS011;73535;52.500;13.482;2024-02-14T12:51:28;7.10;;;4.68;;
83562;SDS011;73535;52.500;13.482;2024-02-14T12:53:53;6.70;;;4.25;;
83562;SDS011;73535;52.500;13.482;2024-02-14T12:56:18;7.10;;;4.50;;
83562;SDS011;73535;52.500;13.482;2024-02-14T12:58:44;5.60;;;4.47;;
83562;SDS011;73535;52.500;13.482;2024-02-14T13:01:11;7.50;;;4.00;;
83562;SDS011;73535;52.500;13.482;2024-02-14T13:03:37;5.13;;;4.18;;
83562;SDS011;73535;52.500;13.482;2024-02-14T13:06:03;5.07;;;4.07;;
83562;SDS011;73535;52.500;13.482;2024-02-14T13:08:28;7.35;;;4.05;;
83562;SDS011;73535;52.500;13.482;2024-02-14T13:10:53;7.45;;;4.53;;
83562;SDS011;73535;52.500;13.482;2024-02-14T13:13:19;7.13;;;4.65;;
83562;SDS011;73535;52.500;13.482;2024-02-14T13:15:44;9.50;;;4.97;;
83562;SDS011;73535;52.500;13.482;2024-02-14T13:18:09;4.90;;;4.07;;
83562;SDS011;73535;52.500;13.482;2024-02-14T13:20:35;6.03;;;4.07;;
83562;SDS011;73535;52.500;13.482;2024-02-14T13:23:00;4.80;;;4.30;;
83562;SDS011;73535;52.500;13.482;2024-02-14T13:27:52;6.63;;;3.95;;
83562;SDS011;73535;52.500;13.482;2024-02-14T13:30:19;6.47;;;4.50;;
83562;SDS011;73535;52.500;13.482;2024-02-14T13:32:44;5.18;;;4.32;;
83562;SDS011;73535;52.500;13.482;2024-02-14T13:35:09;6.85;;;4.60;;
83562;SDS011;73535;52.500;13.482;2024-02-14T13:37:36;8.23;;;4.90;;
83562;SDS011;73535;52.500;13.482;2024-02-14T13:40:01;8.88;;;4.78;;
83562;SDS011;73535;52.500;13.482;2024-02-14T13:42:29;7.35;;;5.35;;
83562;SDS011;73535;52.500;13.482;2024-02-14T13:44:54;9.00;;;4.65;;
83562;SDS011;73535;52.500;13.482;2024-02-14T13:47:19;7.53;;;4.90;;
83562;SDS011;73535;52.500;13.482;2024-02-14T13:49:45;6.10;;;4.45;;
83562;SDS011;73535;52.500;13.482;2024-02-14T13:52:11;8.50;;;5.10;;
83562;SDS011;73535;52.500;13.482;2024-02-14T13:54:36;7.72;;;4.63;;
83562;SDS011;73535;52.500;13.482;2024-02-14T13:57:02;9.05;;;5.03;;
83562;SDS011;73535;52.500;13.482;2024-02-14T13:59:27;5.85;;;4.45;;
83562;SDS011;73535;52.500;13.482;2024-02-14T14:01:53;6.40;;;4.50;;
83562;SDS011;73535;52.500;13.482;2024-02-14T14:04:18;8.95;;;5.10;;
83562;SDS011;73535;52.500;13.482;2024-02-14T14:06:43;6.00;;;4.85;;
83562;SDS011;73535;52.500;13.482;2024-02-14T14:09:08;10.88;;;5.10;;
83562;SDS011;73535;52.500;13.482;2024-02-14T14:14:00;7.37;;;4.93;;
83562;SDS011;73535;52.500;13.482;2024-02-14T14:16:26;7.90;;;5.70;;
83562;SDS011;73535;52.500;13.482;2024-02-14T14:18:51;9.95;;;5.35;;
83562;SDS011;73535;52.500;13.482;2024-02-14T14:21:16;6.60;;;4.93;;
83562;SDS011;73535;52.500;13.482;2024-02-14T14:23:42;8.98;;;5.50;;
83562;SDS011;73535;52.500;13.482;2024-02-14T14:26:07;9.80;;;5.68;;
83562;SDS011;73535;52.500;13.482;2024-02-14T14:28:33;8.43;;;5.22;;
83562;SDS011;73535;52.500;13.482;2024-02-14T14:30:58;6.20;;;4.95;;
83562;SDS011;73535;52.500;13.482;2024-02-14T14:33:25;7.30;;;5.47;;